Time;durP1;ratioP1;P1;durP2;ratioP2;P2;SDS_P1;SDS_P2;PMS_P1;PMS_P2;Temp;Humidity;BMP_temperature;BMP_pressure;BME280_temperature;BME280_humidity;BME280_pressure;Samples;Min_cycle;Max_cycle;Signal;HPM_P1;HPM_P2
2023/12/17 00:01:48;;;;;;;2.20;1.60;;;;;;;;;;5093794;28;20671;-72
2023/12/17 00:04:32;;;;;;;2.97;1.63;;;;;;;;;;5080268;28;20184;-73
2023/12/17 00:06:59;;;;;;;2.50;1.70;;;;;;;;;;5095464;28;20182;-72
2023/12/17 00:09:26;;;;;;;2.83;2.00;;;;;;;;;;5095191;28;20181;-73
2023/12/17 00:11:52;;;;;;;5.00;1.90;;;;;;;;;;5094814;28;20185;-72
2023/12/17 00:14:19;;;;;;;2.50;2.00;;;;;;;;;;5077053;28;20205;-72
2023/12/17 00:16:48;;;;;;;1.90;1.57;;;;;;;;;;5060940;28;20643;-73
2023/12/17 00:19:15;;;;;;;2.00;1.57;;;;;;;;;;5093627;28;20244;-73
2023/12/17 00:21:41;;;;;;;2.50;1.67;;;;;;;;;;5095655;28;20197;-73
2023/12/17 00:24:08;;;;;;;2.87;1.90;;;;;;;;;;5093551;28;20193;-73
2023/12/17 00:26:35;;;;;;;7.97;1.77;;;;;;;;;;5076682;28;20563;-72
2023/12/17 00:29:01;;;;;;;3.10;1.80;;;;;;;;;;5076555;28;20187;-72
2023/12/17 00:31:28;;;;;;;3.27;2.40;;;;;;;;;;5076503;28;20208;-72
2023/12/17 00:33:55;;;;;;;3.73;2.60;;;;;;;;;;5094542;28;20224;-73
2023/12/17 00:36:22;;;;;;;2.30;2.10;;;;;;;;;;5060310;28;20185;-73
2023/12/17 00:38:48;;;;;;;2.97;2.50;;;;;;;;;;5094408;28;20185;-73
2023/12/17 00:41:15;;;;;;;5.23;2.77;;;;;;;;;;5094575;28;20189;-73
2023/12/17 00:43:43;;;;;;;3.33;2.63;;;;;;;;;;5094253;28;20213;-72
2023/12/17 00:46:09;;;;;;;3.83;2.70;;;;;;;;;;5094157;28;20633;-73
2023/12/17 00:48:36;;;;;;;3.57;2.90;;;;;;;;;;5093217;28;20212;-73
2023/12/17 00:51:04;;;;;;;4.17;2.60;;;;;;;;;;5076196;28;20180;-73
2023/12/17 00:53:30;;;;;;;3.57;2.77;;;;;;;;;;5076359;28;20288;-72
2023/12/17 00:55:57;;;;;;;2.60;1.90;;;;;;;;;;5094260;28;20568;-73
2023/12/17 00:58:24;;;;;;;6.13;2.80;;;;;;;;;;5094581;28;20181;-73
2023/12/17 01:01:08;;;;;;;4.50;2.80;;;;;;;;;;5078935;28;20267;-73
2023/12/17 01:03:35;;;;;;;4.60;3.00;;;;;;;;;;5075947;28;20211;-72
2023/12/17 01:06:19;;;;;;;7.37;3.83;;;;;;;;;;5079176;28;20548;-73
2023/12/17 01:08:46;;;;;;;6.73;3.70;;;;;;;;;;5093771;28;20736;-72
2023/12/17 01:11:12;;;;;;;5.23;2.77;;;;;;;;;;5075921;28;20641;-73
2023/12/17 01:49:07;;;;;;;7.23;3.40;;;;;;;;;;5100536;28;20240;-73
2023/12/17 01:51:34;;;;;;;11.40;4.63;;;;;;;;;;5082229;28;20178;-73
2023/12/17 01:54:01;;;;;;;8.37;4.70;;;;;;;;;;5100304;28;20275;-73
2023/12/17 01:56:28;;;;;;;8.63;4.50;;;;;;;;;;5100365;28;20647;-72
2023/12/17 01:58:54;;;;;;;9.50;4.07;;;;;;;;;;5065552;28;20192;-73
2023/12/17 02:01:21;;;;;;;8.13;4.37;;;;;;;;;;5100380;28;20225;-73
2023/12/17 02:03:48;;;;;;;5.70;2.90;;;;;;;;;;5100039;28;20209;-73
2023/12/17 02:06:15;;;;;;;9.07;4.43;;;;;;;;;;5100611;28;20189;-73
2023/12/17 02:08:41;;;;;;;9.47;3.83;;;;;;;;;;5098682;28;20216;-73
2023/12/17 02:11:08;;;;;;;6.97;3.73;;;;;;;;;;5049235;28;20281;-72
2023/12/17 02:13:35;;;;;;;8.13;3.90;;;;;;;;;;5100159;28;20644;-73
2023/12/17 02:16:01;;;;;;;6.93;3.20;;;;;;;;;;5100234;28;20663;-72
2023/12/17 02:18:28;;;;;;;12.93;4.70;;;;;;;;;;5081850;28;20204;-72
2023/12/17 02:21:12;;;;;;;7.10;4.10;;;;;;;;;;5084536;28;20171;-73
2023/12/17 02:23:38;;;;;;;7.37;3.60;;;;;;;;;;5100240;28;20189;-73
2023/12/17 02:26:05;;;;;;;6.97;3.97;;;;;;;;;;5098990;28;20535;-73
2023/12/17 02:28:32;;;;;;;9.87;4.80;;;;;;;;;;5082082;28;20623;-73
2023/12/17 02:30:58;;;;;;;8.83;4.30;;;;;;;;;;5082297;28;20512;-73
2023/12/17 02:33:25;;;;;;;7.53;4.20;;;;;;;;;;5082295;28;20208;-73
2023/12/17 02:35:52;;;;;;;5.03;3.20;;;;;;;;;;5081792;28;20185;-73
2023/12/17 02:38:19;;;;;;;9.37;3.80;;;;;;;;;;5098756;28;20185;-73
2023/12/17 02:40:46;;;;;;;8.20;4.50;;;;;;;;;;5099678;28;20212;-73
2023/12/17 02:43:13;;;;;;;7.80;3.80;;;;;;;;;;5082384;28;20268;-72
2023/12/17 02:45:39;;;;;;;9.00;4.37;;;;;;;;;;5061192;28;20185;-73
2023/12/17 02:48:06;;;;;;;9.20;4.10;;;;;;;;;;5078441;28;20192;-73
2023/12/17 02:50:33;;;;;;;7.30;3.70;;;;;;;;;;5096384;28;20216;-73
2023/12/17 02:52:59;;;;;;;9.70;3.30;;;;;;;;;;5078492;28;20186;-73
2023/12/17 02:55:26;;;;;;;7.57;3.43;;;;;;;;;;5078328;28;20616;-72
2023/12/17 02:57:53;;;;;;;7.37;3.83;;;;;;;;;;5096248;28;20359;-73
2023/12/17 03:00:20;;;;;;;8.07;4.23;;;;;;;;;;5096185;28;20229;-73
2023/12/17 03:03:04;;;;;;;8.17;3.47;;;;;;;;;;5096464;28;20178;-73
2023/12/17 03:05:31;;;;;;;7.33;3.77;;;;;;;;;;5078249;28;20193;-73
2023/12/17 03:07:59;;;;;;;7.73;4.37;;;;;;;;;;5078517;28;20189;-72
2023/12/17 03:10:25;;;;;;;7.70;4.20;;;;;;;;;;5078145;28;20190;-73
2023/12/17 03:12:52;;;;;;;5.67;2.80;;;;;;;;;;5078231;28;20670;-72
2023/12/17 03:15:18;;;;;;;8.87;3.40;;;;;;;;;;5078206;28;20201;-72
2023/12/17 03:17:45;;;;;;;7.53;3.93;;;;;;;;;;5095825;28;20275;-73
2023/12/17 03:20:14;;;;;;;9.80;4.23;;;;;;;;;;5096255;28;20269;-73
2023/12/17 03:22:41;;;;;;;7.03;3.67;;;;;;;;;;5095795;28;20704;-73
2023/12/17 03:25:08;;;;;;;6.73;4.37;;;;;;;;;;5077808;28;20181;-73
2023/12/17 03:27:35;;;;;;;10.40;4.57;;;;;;;;;;5061273;28;20681;-73
2023/12/17 03:30:01;;;;;;;7.70;4.43;;;;;;;;;;5095649;28;20177;-73
2023/12/17 03:32:28;;;;;;;6.27;2.67;;;;;;;;;;5061115;28;20247;-72
2023/12/17 03:34:55;;;;;;;8.47;4.03;;;;;;;;;;5095596;28;20225;-72
2023/12/17 03:37:22;;;;;;;5.73;3.47;;;;;;;;;;5095597;28;20627;-72
2023/12/17 03:39:50;;;;;;;6.83;3.70;;;;;;;;;;5077965;28;20211;-73
2023/12/17 03:42:17;;;;;;;10.93;5.00;;;;;;;;;;5095406;28;20636;-72
2023/12/17 03:44:46;;;;;;;9.10;4.63;;;;;;;;;;5094506;28;20177;-72
2023/12/17 03:47:13;;;;;;;5.43;2.97;;;;;;;;;;5095351;28;20177;-73
2023/12/17 03:49:39;;;;;;;6.90;4.23;;;;;;;;;;5095219;28;20188;-72
2023/12/17 03:52:06;;;;;;;9.93;4.13;;;;;;;;;;5095169;28;20512;-72
2023/12/17 03:54:34;;;;;;;8.93;4.13;;;;;;;;;;5095225;28;20217;-73
2023/12/17 03:57:00;;;;;;;9.37;4.80;;;;;;;;;;5094748;28;20264;-73
2023/12/17 03:59:27;;;;;;;7.73;3.90;;;;;;;;;;5077501;28;20212;-72
2023/12/17 04:01:54;;;;;;;7.10;3.83;;;;;;;;;;5095243;28;20225;-72
2023/12/17 04:04:20;;;;;;;6.93;3.57;;;;;;;;;;5060470;28;20185;-70
2023/12/17 04:07:05;;;;;;;7.40;4.20;;;;;;;;;;5079925;28;20165;-72
2023/12/17 04:09:31;;;;;;;8.73;4.90;;;;;;;;;;5076734;28;20193;-72
2023/12/17 04:11:58;;;;;;;7.43;4.53;;;;;;;;;;5060328;28;20228;-72
2023/12/17 04:14:25;;;;;;;7.70;4.10;;;;;;;;;;5060213;28;20209;-72
2023/12/17 04:16:51;;;;;;;6.00;3.87;;;;;;;;;;5060486;28;20594;-72
2023/12/17 04:19:18;;;;;;;9.23;5.37;;;;;;;;;;5094897;28;20197;-72
2023/12/17 04:21:45;;;;;;;7.87;3.90;;;;;;;;;;5076760;28;20636;-72
2023/12/17 04:24:11;;;;;;;9.90;5.07;;;;;;;;;;5060338;28;20288;-72
2023/12/17 04:26:38;;;;;;;6.97;4.80;;;;;;;;;;5094463;28;20188;-73
2023/12/17 04:29:05;;;;;;;10.60;5.13;;;;;;;;;;5095100;28;20185;-72
2023/12/17 04:31:32;;;;;;;11.97;5.33;;;;;;;;;;5076611;28;20181;-73
2023/12/17 04:33:59;;;;;;;8.10;4.53;;;;;;;;;;5094243;28;20193;-72
2023/12/17 04:36:26;;;;;;;13.90;5.90;;;;;;;;;;5093296;28;20510;-73
2023/12/17 04:38:52;;;;;;;9.70;5.20;;;;;;;;;;5094614;28;20610;-73
2023/12/17 04:41:36;;;;;;;11.33;6.10;;;;;;;;;;5094565;28;20158;-72
2023/12/17 04:44:03;;;;;;;9.10;5.00;;;;;;;;;;5059791;28;20213;-72
2023/12/17 04:46:47;;;;;;;10.33;6.10;;;;;;;;;;5094480;28;20176;-73
2023/12/17 04:49:14;;;;;;;10.53;5.43;;;;;;;;;;5076514;28;20197;-73
2023/12/17 04:51:41;;;;;;;6.47;3.37;;;;;;;;;;5094256;28;20268;-72
2023/12/17 04:54:07;;;;;;;11.73;5.60;;;;;;;;;;5059459;28;20192;-73
2023/12/17 04:56:34;;;;;;;8.97;5.43;;;;;;;;;;5076098;28;20632;-72
2023/12/17 04:59:01;;;;;;;10.33;4.57;;;;;;;;;;5075972;28;20217;-72
2023/12/17 05:01:27;;;;;;;10.20;5.70;;;;;;;;;;5059609;28;20248;-73
2023/12/17 05:03:54;;;;;;;12.43;5.20;;;;;;;;;;5076295;28;20608;-73
2023/12/17 05:06:21;;;;;;;10.93;5.43;;;;;;;;;;5059715;28;20206;-72
2023/12/17 05:08:48;;;;;;;10.47;5.43;;;;;;;;;;5093195;28;20188;-72
2023/12/17 05:11:15;;;;;;;10.23;5.00;;;;;;;;;;5094673;28;20181;-73
2023/12/17 05:13:42;;;;;;;9.07;4.80;;;;;;;;;;5059241;28;20185;-71
2023/12/17 05:16:09;;;;;;;9.70;4.87;;;;;;;;;;5076404;28;20227;-71
2023/12/17 05:18:35;;;;;;;7.77;4.40;;;;;;;;;;5075962;28;20240;-72
2023/12/17 05:21:03;;;;;;;8.20;4.20;;;;;;;;;;5093649;28;20192;-73
2023/12/17 05:23:30;;;;;;;4.40;2.17;;;;;;;;;;5075850;28;20217;-73
2023/12/17 05:25:57;;;;;;;7.20;3.23;;;;;;;;;;5094226;28;20185;-72
2023/12/17 05:28:23;;;;;;;7.30;3.53;;;;;;;;;;5059168;28;20239;-73
2023/12/17 05:30:50;;;;;;;5.90;3.37;;;;;;;;;;5076071;28;20189;-72
2023/12/17 05:33:17;;;;;;;6.87;3.30;;;;;;;;;;5075872;28;20268;-73
2023/12/17 05:35:44;;;;;;;5.77;3.17;;;;;;;;;;5093349;28;20213;-72
2023/12/17 05:38:10;;;;;;;5.07;3.20;;;;;;;;;;5075902;28;20592;-72
2023/12/17 05:40:37;;;;;;;6.23;3.30;;;;;;;;;;5075544;28;20697;-73
2023/12/17 05:43:22;;;;;;;5.00;2.17;;;;;;;;;;5093399;28;20157;-71
2023/12/17 05:45:49;;;;;;;5.67;2.83;;;;;;;;;;5093414;28;20185;-72
2023/12/17 05:48:24;;;;;;;5.30;2.60;;;;;;;;;;5093451;28;20624;-72
2023/12/17 05:50:51;;;;;;;5.33;2.37;;;;;;;;;;5093358;28;20205;-72
2023/12/17 05:53:18;;;;;;;2.90;2.00;;;;;;;;;;5092437;28;20632;-72
2023/12/17 05:55:48;;;;;;;4.07;1.90;;;;;;;;;;5076415;28;20204;-76
2023/12/17 05:58:15;;;;;;;6.03;2.90;;;;;;;;;;5093321;28;20185;-72
2023/12/17 06:00:42;;;;;;;5.67;2.10;;;;;;;;;;5074450;28;20284;-76
2023/12/17 06:03:11;;;;;;;5.43;2.83;;;;;;;;;;5092518;28;20482;-74
2023/12/17 06:05:38;;;;;;;4.93;2.53;;;;;;;;;;5093503;28;20178;-73
2023/12/17 06:08:05;;;;;;;3.77;2.13;;;;;;;;;;5075400;28;20190;-75
2023/12/17 06:10:31;;;;;;;5.20;2.27;;;;;;;;;;5093341;28;20182;-75
2023/12/17 06:12:59;;;;;;;3.67;2.40;;;;;;;;;;5093434;28;20269;-76
2023/12/17 06:15:25;;;;;;;2.93;1.60;;;;;;;;;;5075171;28;20244;-75
2023/12/17 06:17:52;;;;;;;3.23;1.80;;;;;;;;;;5093045;28;20664;-75
2023/12/17 06:20:19;;;;;;;3.60;2.40;;;;;;;;;;5079161;28;20276;-75
2023/12/17 06:23:04;;;;;;;3.77;2.07;;;;;;;;;;5097811;28;20162;-73
2023/12/17 06:25:31;;;;;;;2.50;1.40;;;;;;;;;;5078063;28;20229;-75
2023/12/17 06:27:58;;;;;;;3.57;1.80;;;;;;;;;;5086938;28;20200;-72
2023/12/17 06:30:25;;;;;;;2.33;1.20;;;;;;;;;;5068777;28;20520;-71
2023/12/17 06:32:52;;;;;;;3.13;1.93;;;;;;;;;;5068862;28;20193;-75
2023/12/17 06:35:19;;;;;;;2.80;2.17;;;;;;;;;;5068694;28;20235;-73
2023/12/17 06:37:46;;;;;;;3.13;2.10;;;;;;;;;;5086984;28;20185;-74
2023/12/17 06:40:14;;;;;;;2.47;1.73;;;;;;;;;;5087030;28;20185;-74
2023/12/17 06:42:41;;;;;;;3.43;1.70;;;;;;;;;;5068433;28;20291;-72
2023/12/17 06:45:10;;;;;;;1.97;1.40;;;;;;;;;;5068852;28;20190;-75
2023/12/17 06:47:37;;;;;;;2.40;1.70;;;;;;;;;;5087176;28;20193;-74
2023/12/17 06:50:05;;;;;;;2.90;1.73;;;;;;;;;;5068571;28;20182;-73
2023/12/17 06:52:32;;;;;;;2.90;1.40;;;;;;;;;;5086663;28;20194;-74
2023/12/17 06:54:59;;;;;;;2.13;1.33;;;;;;;;;;5068277;28;20221;-73
2023/12/17 06:57:27;;;;;;;3.07;1.33;;;;;;;;;;5086560;28;20263;-72
2023/12/17 06:59:55;;;;;;;3.13;1.63;;;;;;;;;;5086513;28;20320;-72
2023/12/17 07:02:24;;;;;;;4.27;1.80;;;;;;;;;;5085286;28;20603;-73
2023/12/17 07:04:51;;;;;;;2.77;1.43;;;;;;;;;;5035751;28;20199;-73
2023/12/17 07:07:18;;;;;;;3.03;1.97;;;;;;;;;;5085542;28;20200;-73
2023/12/17 07:09:45;;;;;;;2.67;1.93;;;;;;;;;;5086635;28;20193;-73
2023/12/17 07:12:12;;;;;;;2.77;1.30;;;;;;;;;;5086686;28;20193;-73
2023/12/17 07:14:40;;;;;;;2.80;1.90;;;;;;;;;;5051714;28;20268;-74
2023/12/17 07:17:06;;;;;;;2.80;1.70;;;;;;;;;;5086509;28;20185;-72
2023/12/17 07:19:37;;;;;;;3.90;2.03;;;;;;;;;;5069294;28;20667;-72
2023/12/17 07:22:05;;;;;;;3.93;2.00;;;;;;;;;;5086668;28;20197;-72
2023/12/17 07:24:32;;;;;;;2.50;1.60;;;;;;;;;;5074570;28;20225;-73
2023/12/17 07:26:59;;;;;;;2.13;1.60;;;;;;;;;;5051333;28;20648;-74
2023/12/17 07:29:26;;;;;;;2.73;2.10;;;;;;;;;;5067985;28;20187;-72
2023/12/17 07:31:54;;;;;;;1.90;1.60;;;;;;;;;;5085280;28;20264;-74
2023/12/17 07:34:21;;;;;;;3.00;1.80;;;;;;;;;;5067577;28;20198;-73
2023/12/17 07:36:48;;;;;;;2.87;1.90;;;;;;;;;;5067514;28;20312;-74
2023/12/17 07:39:15;;;;;;;1.83;1.40;;;;;;;;;;5067609;28;20177;-74
2023/12/17 07:41:42;;;;;;;3.17;1.73;;;;;;;;;;5086043;28;20482;-72
2023/12/17 07:44:10;;;;;;;1.97;1.20;;;;;;;;;;5086043;28;20217;-72
2023/12/17 07:46:37;;;;;;;3.90;1.80;;;;;;;;;;5085898;28;20189;-73
2023/12/17 07:49:04;;;;;;;2.87;1.83;;;;;;;;;;5067525;28;21344;-75
2023/12/17 07:51:31;;;;;;;3.63;2.03;;;;;;;;;;5067194;28;20207;-74
2023/12/17 07:53:58;;;;;;;3.13;1.40;;;;;;;;;;5083926;28;20202;-74
2023/12/17 07:56:26;;;;;;;4.40;1.70;;;;;;;;;;5085777;28;20521;-74
2023/12/17 07:58:53;;;;;;;2.83;1.70;;;;;;;;;;5067498;28;20262;-73
2023/12/17 08:01:30;;;;;;;3.10;1.90;;;;;;;;;;5066946;28;20279;-74
2023/12/17 08:03:59;;;;;;;3.93;2.17;;;;;;;;;;5050757;28;20243;-73
2023/12/17 08:10:36;;;;;;;3.50;1.70;;;;;;;;;;5085458;28;20180;-74
2023/12/17 08:13:03;;;;;;;2.80;1.50;;;;;;;;;;5067199;28;20197;-74
2023/12/17 08:15:30;;;;;;;6.07;2.43;;;;;;;;;;5085216;28;20564;-74
2023/12/17 08:17:57;;;;;;;4.20;2.67;;;;;;;;;;5050667;28;20217;-74
2023/12/17 08:20:24;;;;;;;5.47;2.13;;;;;;;;;;5085646;28;20190;-74
2023/12/17 08:22:51;;;;;;;4.23;2.20;;;;;;;;;;5067157;28;20280;-73
2023/12/17 08:25:19;;;;;;;4.10;2.50;;;;;;;;;;5074149;28;20605;-75
2023/12/17 08:27:45;;;;;;;5.30;2.10;;;;;;;;;;5085312;28;20181;-73
2023/12/17 08:30:12;;;;;;;6.37;2.80;;;;;;;;;;5085732;28;20196;-72
2023/12/17 08:32:40;;;;;;;4.93;1.77;;;;;;;;;;5085148;28;20213;-74
2023/12/17 08:35:09;;;;;;;3.23;2.17;;;;;;;;;;5074813;28;20724;-75
2023/12/17 08:37:59;;;;;;;3.47;2.20;;;;;;;;;;5065415;28;20181;-77
2023/12/17 08:40:26;;;;;;;3.97;1.70;;;;;;;;;;5077219;28;20189;-77
2023/12/17 08:42:53;;;;;;;4.57;2.20;;;;;;;;;;5059642;28;20276;-76
2023/12/17 08:45:20;;;;;;;2.87;2.03;;;;;;;;;;5076834;28;20616;-76
2023/12/17 08:47:48;;;;;;;4.03;2.50;;;;;;;;;;5076810;28;20276;-76
2023/12/17 08:50:31;;;;;;;2.60;1.60;;;;;;;;;;5079831;28;20540;-76
2023/12/17 08:52:58;;;;;;;3.20;2.07;;;;;;;;;;5094500;28;20178;-76
2023/12/17 08:55:26;;;;;;;3.50;2.40;;;;;;;;;;5076776;28;20590;-76
2023/12/17 08:57:53;;;;;;;3.50;2.73;;;;;;;;;;5076987;28;20190;-76
2023/12/17 09:00:20;;;;;;;3.33;2.47;;;;;;;;;;5059986;28;20552;-75
2023/12/17 09:02:47;;;;;;;4.03;2.30;;;;;;;;;;5036469;28;20583;-74
2023/12/17 09:05:14;;;;;;;4.07;2.27;;;;;;;;;;5053327;28;20171;-75
2023/12/17 09:07:41;;;;;;;2.83;2.10;;;;;;;;;;5053160;28;20198;-76
2023/12/17 09:10:08;;;;;;;6.23;1.57;;;;;;;;;;5054699;28;20530;-74
2023/12/17 09:12:35;;;;;;;6.40;2.20;;;;;;;;;;5054174;28;20182;-75
2023/12/17 09:15:02;;;;;;;3.57;1.97;;;;;;;;;;5069502;28;20194;-74
2023/12/17 09:17:29;;;;;;;4.27;2.10;;;;;;;;;;5052899;28;20225;-75
2023/12/17 09:19:57;;;;;;;3.17;2.00;;;;;;;;;;5054270;28;20222;-77
2023/12/17 09:22:23;;;;;;;4.20;2.50;;;;;;;;;;5054094;28;20186;-76
2023/12/17 09:24:51;;;;;;;3.00;2.23;;;;;;;;;;5069582;28;20236;-75
2023/12/17 09:27:19;;;;;;;4.67;2.40;;;;;;;;;;5069518;28;20193;-76
2023/12/17 09:29:48;;;;;;;3.37;2.03;;;;;;;;;;5069021;28;20225;-73
2023/12/17 09:32:15;;;;;;;3.60;2.50;;;;;;;;;;5069286;28;20248;-75
2023/12/17 09:34:42;;;;;;;4.70;2.43;;;;;;;;;;5069251;28;20569;-76
2023/12/17 09:37:09;;;;;;;4.80;2.30;;;;;;;;;;5069294;28;20314;-75
2023/12/17 09:39:36;;;;;;;4.07;2.23;;;;;;;;;;5069125;28;20327;-75
2023/12/17 09:42:03;;;;;;;4.57;2.83;;;;;;;;;;5052466;28;20187;-75
2023/12/17 09:44:30;;;;;;;4.23;2.70;;;;;;;;;;5069063;28;20174;-75
2023/12/17 09:46:57;;;;;;;3.87;2.70;;;;;;;;;;5068063;28;20200;-76
2023/12/17 09:49:27;;;;;;;3.83;2.80;;;;;;;;;;5069506;28;20640;-75
2023/12/17 09:52:01;;;;;;;4.93;3.00;;;;;;;;;;5052819;28;20213;-76
2023/12/17 09:54:29;;;;;;;5.43;3.77;;;;;;;;;;5070784;28;20587;-74
2023/12/17 09:56:57;;;;;;;8.13;3.50;;;;;;;;;;5073738;28;20217;-75
2023/12/17 09:59:24;;;;;;;6.73;3.87;;;;;;;;;;5073753;28;20640;-73
2023/12/17 10:01:54;;;;;;;5.83;3.17;;;;;;;;;;5065206;28;20693;-72
2023/12/17 10:04:24;;;;;;;7.57;4.33;;;;;;;;;;5057496;28;20236;-73
2023/12/17 10:06:52;;;;;;;5.17;4.03;;;;;;;;;;5057990;28;20183;-74
2023/12/17 10:09:19;;;;;;;5.50;3.80;;;;;;;;;;5072910;28;20190;-77
2023/12/17 10:11:47;;;;;;;7.00;4.43;;;;;;;;;;5072795;28;20232;-73
2023/12/17 10:14:24;;;;;;;3.47;2.83;;;;;;;;;;5057976;28;20187;-74
2023/12/17 10:16:51;;;;;;;7.83;4.20;;;;;;;;;;5057400;28;20249;-72
2023/12/17 10:19:18;;;;;;;6.60;4.33;;;;;;;;;;5072816;28;20293;-73
2023/12/17 10:21:45;;;;;;;5.40;2.33;;;;;;;;;;5072973;28;20199;-73
2023/12/17 10:24:12;;;;;;;5.93;2.83;;;;;;;;;;5072552;28;20672;-73
2023/12/17 10:26:46;;;;;;;5.67;3.40;;;;;;;;;;5057124;28;20214;-72
2023/12/17 10:29:14;;;;;;;5.80;2.90;;;;;;;;;;5056585;28;20242;-74
2023/12/17 10:31:43;;;;;;;5.13;2.27;;;;;;;;;;5072649;28;20622;-74
2023/12/17 10:34:19;;;;;;;4.03;2.67;;;;;;;;;;5073514;28;20190;-75
2023/12/17 10:36:52;;;;;;;6.47;4.37;;;;;;;;;;5057924;28;20186;-74
2023/12/17 10:39:21;;;;;;;5.53;3.07;;;;;;;;;;5073590;28;20729;-74
2023/12/17 10:41:49;;;;;;;2.00;1.67;;;;;;;;;;5056377;28;20233;-76
2023/12/17 10:44:17;;;;;;;5.63;2.63;;;;;;;;;;5056195;28;20248;-74
2023/12/17 10:46:55;;;;;;;5.37;2.13;;;;;;;;;;5057165;28;20199;-77
2023/12/17 10:49:25;;;;;;;5.37;3.47;;;;;;;;;;5057598;28;20205;-75
2023/12/17 10:51:57;;;;;;;24.53;11.90;;;;;;;;;;5072593;28;20175;-75
2023/12/17 10:54:41;;;;;;;17.30;8.80;;;;;;;;;;5057126;28;20159;-75
2023/12/17 10:57:10;;;;;;;13.43;5.67;;;;;;;;;;5072457;28;20209;-77
2023/12/17 10:59:37;;;;;;;6.40;3.90;;;;;;;;;;5055827;28;20195;-75
2023/12/17 11:02:07;;;;;;;13.17;6.40;;;;;;;;;;5086263;28;20213;-75
2023/12/17 11:04:34;;;;;;;5.30;3.10;;;;;;;;;;5045569;28;20197;-74
2023/12/17 11:07:02;;;;;;;5.90;3.00;;;;;;;;;;5078434;28;20220;-71
2023/12/17 11:09:29;;;;;;;4.90;2.77;;;;;;;;;;5096325;28;20186;-73
2023/12/17 11:11:56;;;;;;;3.67;2.07;;;;;;;;;;5079129;28;20523;-73
2023/12/17 11:14:24;;;;;;;5.60;3.50;;;;;;;;;;5078405;28;20579;-74
2023/12/17 11:16:52;;;;;;;12.63;6.80;;;;;;;;;;5078291;28;20300;-75
2023/12/17 11:19:18;;;;;;;5.10;2.97;;;;;;;;;;5061611;28;20213;-76
2023/12/17 11:21:46;;;;;;;4.90;2.50;;;;;;;;;;5098374;28;20276;-75
2023/12/17 11:24:13;;;;;;;23.40;3.90;;;;;;;;;;5062936;28;20256;-75
2023/12/17 11:26:44;;;;;;;6.43;3.33;;;;;;;;;;5096722;28;20194;-78
2023/12/17 11:29:30;;;;;;;6.00;3.00;;;;;;;;;;5063020;28;20247;-76
2023/12/17 11:31:57;;;;;;;4.27;2.80;;;;;;;;;;5079096;28;20178;-72
2023/12/17 11:34:24;;;;;;;4.70;2.30;;;;;;;;;;5078840;28;20528;-73
2023/12/17 11:36:51;;;;;;;6.03;4.73;;;;;;;;;;5100843;28;20201;-76
2023/12/17 11:39:20;;;;;;;4.90;2.73;;;;;;;;;;5078258;28;20514;-73
2023/12/17 11:41:51;;;;;;;6.27;2.90;;;;;;;;;;5078849;28;20251;-74
2023/12/17 11:44:22;;;;;;;6.53;3.10;;;;;;;;;;5062047;28;20193;-72
2023/12/17 11:46:49;;;;;;;4.93;3.53;;;;;;;;;;5096491;28;20190;-74
2023/12/17 11:49:23;;;;;;;4.40;3.03;;;;;;;;;;5080021;28;20304;-75
2023/12/17 11:51:52;;;;;;;3.83;2.93;;;;;;;;;;5068343;28;21457;-74
2023/12/17 11:54:20;;;;;;;5.43;3.70;;;;;;;;;;5051464;28;20284;-71
2023/12/17 11:56:48;;;;;;;7.23;3.80;;;;;;;;;;5051693;28;20696;-72
2023/12/17 11:59:15;;;;;;;14.97;9.37;;;;;;;;;;5086264;28;20190;-74
2023/12/17 12:01:43;;;;;;;9.63;4.50;;;;;;;;;;5064460;28;20222;-74
2023/12/17 12:04:11;;;;;;;11.03;6.60;;;;;;;;;;5048312;28;20218;-76
2023/12/17 12:06:39;;;;;;;24.17;11.90;;;;;;;;;;5064993;28;20190;-75
2023/12/17 12:09:16;;;;;;;8.70;5.80;;;;;;;;;;5064910;28;20221;-73
2023/12/17 12:11:45;;;;;;;7.27;3.57;;;;;;;;;;5066556;28;20190;-75
2023/12/17 12:14:12;;;;;;;16.77;10.77;;;;;;;;;;5064969;28;20193;-70
2023/12/17 12:16:40;;;;;;;10.47;6.13;;;;;;;;;;5064207;28;20214;-73
2023/12/17 12:19:24;;;;;;;7.97;4.37;;;;;;;;;;5065915;28;20194;-74
2023/12/17 12:21:58;;;;;;;12.73;5.97;;;;;;;;;;5064812;28;20657;-74
2023/12/17 12:24:42;;;;;;;8.30;4.70;;;;;;;;;;5064860;28;20291;-75
2023/12/17 12:27:09;;;;;;;11.53;6.10;;;;;;;;;;5048155;28;20197;-74
2023/12/17 12:29:37;;;;;;;9.27;4.87;;;;;;;;;;5048642;28;20189;-72
2023/12/17 12:32:06;;;;;;;12.10;6.10;;;;;;;;;;5064433;28;20266;-73
2023/12/17 12:34:34;;;;;;;13.40;6.63;;;;;;;;;;5048210;28;20236;-73
2023/12/17 12:37:02;;;;;;;10.90;6.33;;;;;;;;;;5047891;28;20685;-74
2023/12/17 12:39:30;;;;;;;10.57;7.17;;;;;;;;;;5047586;28;20510;-73
2023/12/17 12:42:19;;;;;;;11.30;6.40;;;;;;;;;;5065055;28;20205;-77
2023/12/17 12:44:46;;;;;;;7.20;4.60;;;;;;;;;;5065441;28;20216;-75
2023/12/17 12:47:14;;;;;;;12.97;6.17;;;;;;;;;;5041784;28;20190;-73
2023/12/17 12:49:43;;;;;;;11.27;5.80;;;;;;;;;;5031583;28;20313;-74
2023/12/17 12:52:11;;;;;;;10.93;6.50;;;;;;;;;;5062891;28;20195;-74
2023/12/17 12:54:39;;;;;;;8.73;5.30;;;;;;;;;;5048477;28;20278;-75
2023/12/17 12:57:06;;;;;;;11.13;5.73;;;;;;;;;;5062206;28;20670;-75
2023/12/17 12:59:37;;;;;;;9.57;5.23;;;;;;;;;;5047445;28;21008;-74
2023/12/17 13:02:04;;;;;;;9.57;5.80;;;;;;;;;;5075653;28;20569;-74
2023/12/17 13:04:31;;;;;;;6.63;3.97;;;;;;;;;;5066563;28;20186;-73
2023/12/17 13:07:00;;;;;;;12.03;6.20;;;;;;;;;;5067658;28;20251;-74
2023/12/17 13:09:28;;;;;;;9.73;5.73;;;;;;;;;;5065420;28;20553;-74
2023/12/17 13:11:56;;;;;;;6.33;3.93;;;;;;;;;;5068519;28;20196;-75
2023/12/17 13:14:23;;;;;;;7.63;5.40;;;;;;;;;;5065427;28;20271;-74
2023/12/17 13:16:50;;;;;;;9.70;5.40;;;;;;;;;;5064700;28;20220;-75
2023/12/17 13:19:35;;;;;;;9.63;6.30;;;;;;;;;;5081096;28;20712;-73
2023/12/17 13:22:03;;;;;;;10.37;4.73;;;;;;;;;;5064406;28;20220;-75
2023/12/17 13:24:30;;;;;;;8.87;5.83;;;;;;;;;;5065562;28;20186;-74
2023/12/17 13:26:58;;;;;;;9.33;4.33;;;;;;;;;;5064726;28;20208;-76
2023/12/17 13:29:27;;;;;;;6.17;4.33;;;;;;;;;;5064637;28;20201;-74
2023/12/17 13:31:54;;;;;;;8.17;5.00;;;;;;;;;;5064191;28;20189;-72
2023/12/17 13:34:22;;;;;;;7.60;4.53;;;;;;;;;;5065355;28;21801;-73
2023/12/17 13:36:49;;;;;;;8.13;4.17;;;;;;;;;;5065226;28;20759;-76
2023/12/17 13:39:16;;;;;;;8.70;4.20;;;;;;;;;;5064113;28;20194;-73
2023/12/17 13:41:46;;;;;;;7.80;4.27;;;;;;;;;;5063275;28;20641;-72
2023/12/17 13:44:24;;;;;;;7.57;4.90;;;;;;;;;;5065139;28;20178;-72
2023/12/17 13:46:52;;;;;;;6.60;4.20;;;;;;;;;;5063912;28;20412;-72
2023/12/17 13:49:20;;;;;;;5.37;3.33;;;;;;;;;;5052956;28;20243;-73
2023/12/17 13:51:48;;;;;;;8.73;4.33;;;;;;;;;;5063048;28;20243;-75
2023/12/17 13:54:16;;;;;;;5.80;3.60;;;;;;;;;;5079993;28;20186;-73
2023/12/17 13:56:46;;;;;;;7.27;4.10;;;;;;;;;;5062907;28;20281;-73
2023/12/17 13:59:14;;;;;;;9.20;5.00;;;;;;;;;;5064795;28;20633;-73
2023/12/17 14:01:40;;;;;;;8.80;4.73;;;;;;;;;;5063282;28;20228;-73
2023/12/17 14:04:07;;;;;;;8.47;3.13;;;;;;;;;;5063520;28;20236;-75
2023/12/17 14:06:34;;;;;;;8.60;5.20;;;;;;;;;;5080647;28;20299;-72
2023/12/17 14:09:19;;;;;;;8.20;4.37;;;;;;;;;;5065417;28;20193;-74
2023/12/17 14:11:47;;;;;;;7.53;4.63;;;;;;;;;;5044881;28;20191;-73
2023/12/17 14:14:14;;;;;;;7.80;4.27;;;;;;;;;;5060455;28;20278;-74
2023/12/17 14:16:42;;;;;;;10.30;5.07;;;;;;;;;;5042816;28;20234;-73
2023/12/17 14:19:10;;;;;;;8.83;4.30;;;;;;;;;;5058745;28;20293;-72
2023/12/17 14:21:38;;;;;;;8.07;5.30;;;;;;;;;;5058774;28;20194;-73
2023/12/17 14:35:15;;;;;;;8.57;5.87;;;;;;;;;;5044147;28;20584;-72
2023/12/17 14:38:19;;;;;;;10.53;6.67;;;;;;;;;;5057305;28;20718;-72
2023/12/17 14:41:28;;;;;;;10.20;6.07;;;;;;;;;;5022692;28;20222;-74
2023/12/17 14:48:36;;;;;;;6.07;4.20;;;;;;;;;;4943429;29;20206;-73
2023/12/17 14:51:33;;;;;;;11.47;6.43;;;;;;;;;;4949758;28;20296;-72
2023/12/17 14:55:00;;;;;;;11.07;6.40;;;;;;;;;;4991056;28;20651;-72
2023/12/17 15:53:18;;;;;;;5.97;3.67;;;;;;;;;;4865057;29;20276;-74
2023/12/17 15:55:45;;;;;;;11.10;7.70;;;;;;;;;;4839063;29;20244;-72
2023/12/17 15:58:12;;;;;;;12.07;7.10;;;;;;;;;;4874368;29;20239;-71
2023/12/17 16:00:39;;;;;;;10.23;7.20;;;;;;;;;;4984515;28;20290;-71
2023/12/17 16:03:07;;;;;;;9.40;6.53;;;;;;;;;;5034959;28;20639;-73
2023/12/17 16:05:33;;;;;;;10.50;6.87;;;;;;;;;;5035063;28;20584;-72
2023/12/17 16:08:01;;;;;;;12.27;6.87;;;;;;;;;;5033510;28;20191;-70
2023/12/17 16:10:27;;;;;;;11.20;7.30;;;;;;;;;;5017573;28;20180;-72
2023/12/17 16:12:58;;;;;;;8.47;6.30;;;;;;;;;;5035217;28;20179;-73
2023/12/17 16:15:25;;;;;;;10.23;6.60;;;;;;;;;;5018329;28;20203;-72
2023/12/17 16:17:53;;;;;;;12.17;7.00;;;;;;;;;;5034521;28;20199;-73
2023/12/17 16:20:21;;;;;;;11.67;6.80;;;;;;;;;;5017650;28;20183;-73
2023/12/17 16:22:49;;;;;;;11.03;6.77;;;;;;;;;;5017278;28;20193;-73
2023/12/17 16:25:16;;;;;;;11.50;8.43;;;;;;;;;;5034539;28;20643;-72
2023/12/17 16:27:42;;;;;;;15.30;8.83;;;;;;;;;;5033159;28;20198;-72
2023/12/17 16:30:09;;;;;;;12.30;7.80;;;;;;;;;;5034767;28;20211;-72
2023/12/17 16:32:38;;;;;;;13.03;8.80;;;;;;;;;;5033705;28;20194;-73
2023/12/17 16:35:08;;;;;;;14.70;8.50;;;;;;;;;;5035003;28;20317;-72
2023/12/17 16:37:35;;;;;;;9.90;5.97;;;;;;;;;;5035077;28;20305;-73
2023/12/17 16:40:03;;;;;;;13.17;7.57;;;;;;;;;;5033062;28;20190;-73
2023/12/17 16:42:30;;;;;;;10.73;6.83;;;;;;;;;;5033381;28;20574;-73